createdAt,value
2022-08-15T00:00:59.581Z,23.34
2022-08-15T00:01:59.544Z,23.34
2022-08-15T00:03:01.465Z,23.32
2022-08-15T00:04:00.797Z,23.31
2022-08-15T00:05:00.507Z,23.28
2022-08-15T00:05:59.498Z,23.28
2022-08-15T00:07:00.485Z,23.27
2022-08-15T00:07:59.458Z,23.25
2022-08-15T00:08:59.456Z,23.23
2022-08-15T00:10:17.609Z,23.21
2022-08-15T00:11:20.214Z,23.23
2022-08-15T00:12:00.428Z,23.18
2022-08-15T00:12:59.411Z,23.18
2022-08-15T00:14:02.463Z,23.17
2022-08-15T00:15:00.363Z,23.17
2022-08-15T00:15:59.352Z,23.15
2022-08-15T00:16:59.341Z,23.15
2022-08-15T00:17:59.324Z,23.12
2022-08-15T00:18:59.335Z,23.13
2022-08-15T00:19:59.304Z,23.10
2022-08-15T00:20:59.285Z,23.08
2022-08-15T00:21:59.316Z,23.06
2022-08-15T00:22:59.264Z,23.05
2022-08-15T00:23:59.246Z,23.03
2022-08-15T00:24:59.318Z,23.02
2022-08-15T00:25:59.319Z,23.00
2022-08-15T00:27:00.207Z,22.99
2022-08-15T00:27:59.189Z,22.99
2022-08-15T00:28:59.176Z,22.99
2022-08-15T00:30:02.160Z,22.98
2022-08-15T00:31:02.211Z,22.98
2022-08-15T00:31:59.140Z,22.93
2022-08-15T00:33:19.906Z,22.93
2022-08-15T00:34:00.105Z,22.91
2022-08-15T00:34:59.133Z,22.90
2022-08-15T00:36:03.053Z,22.91
2022-08-15T00:36:59.122Z,22.88
2022-08-15T00:38:11.720Z,22.87
2022-08-15T00:39:00.377Z,22.85
2022-08-15T00:39:59.073Z,22.84
2022-08-15T00:40:59.024Z,22.81
2022-08-15T00:41:59.004Z,22.80
2022-08-15T00:42:59.018Z,22.78
2022-08-15T00:43:59.022Z,22.75
2022-08-15T00:45:06.966Z,22.72
2022-08-15T00:45:59.955Z,22.70
2022-08-15T00:46:58.959Z,22.68
2022-08-15T00:47:58.948Z,22.66
2022-08-15T00:48:58.913Z,22.65
2022-08-15T00:50:03.643Z,22.62
2022-08-15T00:51:01.903Z,22.63
2022-08-15T00:51:58.912Z,22.59
2022-08-15T00:52:58.848Z,22.55
2022-08-15T00:53:58.841Z,22.51
2022-08-15T00:54:59.814Z,22.51
2022-08-15T00:55:58.812Z,22.47
2022-08-15T00:56:58.804Z,22.45
2022-08-15T00:58:02.853Z,22.43
2022-08-15T00:58:59.794Z,22.39
2022-08-15T00:59:59.756Z,22.36
2022-08-15T01:00:58.796Z,22.35
2022-08-15T01:02:01.413Z,22.32
2022-08-15T01:02:58.717Z,22.29
2022-08-15T01:03:58.748Z,22.26
2022-08-15T01:05:01.910Z,22.25
2022-08-15T01:05:58.688Z,22.22
2022-08-15T01:07:01.669Z,22.20
2022-08-15T01:07:59.651Z,22.17
2022-08-15T01:08:58.801Z,22.17
2022-08-15T01:10:01.623Z,22.17
2022-08-15T01:11:02.817Z,22.20
2022-08-15T01:11:58.591Z,22.17
2022-08-15T01:12:58.591Z,22.15
2022-08-15T01:14:05.453Z,22.14
2022-08-15T01:14:59.604Z,22.14
2022-08-15T01:15:58.575Z,22.15
2022-08-15T01:16:58.533Z,22.13
2022-08-15T01:17:58.506Z,22.13
2022-08-15T01:18:58.497Z,22.11
2022-08-15T01:19:59.508Z,22.08
2022-08-15T01:20:58.497Z,22.08
2022-08-15T01:22:02.480Z,22.10
2022-08-15T01:22:59.440Z,22.06
2022-08-15T01:23:58.430Z,22.07
2022-08-15T01:25:10.683Z,22.06
2022-08-15T01:26:40.948Z,22.04
2022-08-15T01:26:59.399Z,22.04
2022-08-15T01:27:58.380Z,21.98
2022-08-15T01:28:58.380Z,21.98
2022-08-15T01:30:01.341Z,21.93
2022-08-15T01:31:04.392Z,21.93
2022-08-15T01:31:58.322Z,21.91
2022-08-15T01:32:58.312Z,21.89
2022-08-15T01:33:58.314Z,21.83
2022-08-15T01:34:58.285Z,21.83
2022-08-15T01:35:58.277Z,21.79
2022-08-15T01:36:58.281Z,21.75
2022-08-15T01:37:58.636Z,21.73
2022-08-15T01:39:05.377Z,21.73
2022-08-15T01:39:59.600Z,21.72
2022-08-15T01:40:58.235Z,21.70
2022-08-15T01:41:58.238Z,21.67
2022-08-15T01:42:58.168Z,21.69
2022-08-15T01:43:58.160Z,21.67
2022-08-15T01:45:00.257Z,21.67
2022-08-15T01:45:58.482Z,21.67
2022-08-15T01:46:58.110Z,21.64
2022-08-15T01:48:02.042Z,21.64
2022-08-15T01:48:59.081Z,21.64
2022-08-15T01:50:01.586Z,21.64
2022-08-15T01:51:01.072Z,21.64
2022-08-15T01:51:58.082Z,21.62
2022-08-15T01:53:09.173Z,21.61
2022-08-15T01:53:59.216Z,21.61
2022-08-15T01:55:03.007Z,21.60
2022-08-15T01:55:58.987Z,21.58
2022-08-15T01:56:57.972Z,21.55
2022-08-15T01:57:57.974Z,21.54
2022-08-15T01:58:57.994Z,21.52
2022-08-15T01:59:57.937Z,21.51
2022-08-15T02:00:57.974Z,21.51
2022-08-15T02:01:57.944Z,21.48
2022-08-15T02:02:58.531Z,21.45
2022-08-15T02:03:57.889Z,21.43
2022-08-15T02:04:59.573Z,21.42
2022-08-15T02:05:57.861Z,21.42
2022-08-15T02:06:57.848Z,21.43
2022-08-15T02:08:33.919Z,21.43
2022-08-15T02:08:58.822Z,21.40
2022-08-15T02:10:11.051Z,21.37
2022-08-15T02:11:01.853Z,21.40
2022-08-15T02:11:58.815Z,21.39
2022-08-15T02:13:03.344Z,21.37
2022-08-15T02:13:58.743Z,21.39
2022-08-15T02:14:57.725Z,21.39
2022-08-15T02:15:57.724Z,21.37
2022-08-15T02:16:58.238Z,21.39
2022-08-15T02:17:57.686Z,21.40
2022-08-15T02:18:59.536Z,21.39
2022-08-15T02:19:57.666Z,21.39
2022-08-15T02:20:57.646Z,21.39
2022-08-15T02:21:57.654Z,21.39
2022-08-15T02:22:57.618Z,21.37
2022-08-15T02:23:57.782Z,21.37
2022-08-15T02:24:57.597Z,21.36
2022-08-15T02:25:57.582Z,21.36
2022-08-15T02:26:57.561Z,21.36
2022-08-15T02:27:57.562Z,21.36
2022-08-15T02:28:57.542Z,21.35
2022-08-15T02:30:00.573Z,21.36
2022-08-15T02:31:00.528Z,21.39
2022-08-15T02:31:57.493Z,21.36
2022-08-15T02:32:57.485Z,21.39
2022-08-15T02:33:57.474Z,21.37
2022-08-15T02:34:57.456Z,21.37
2022-08-15T02:35:57.499Z,21.36
2022-08-15T02:36:57.433Z,21.33
2022-08-15T02:37:57.827Z,21.32
2022-08-15T02:38:57.396Z,21.25
2022-08-15T02:40:37.964Z,21.24
2022-08-15T02:40:58.450Z,21.21
2022-08-15T02:41:57.370Z,21.21
2022-08-15T02:42:57.348Z,21.20
2022-08-15T02:43:58.063Z,21.14
2022-08-15T02:44:57.330Z,21.12
2022-08-15T02:46:28.709Z,21.09
2022-08-15T02:47:03.255Z,21.07
2022-08-15T02:47:58.282Z,21.06
2022-08-15T02:48:57.957Z,21.06
2022-08-15T02:50:00.251Z,21.05
2022-08-15T02:51:00.252Z,21.07
2022-08-15T02:51:57.226Z,21.06
2022-08-15T02:52:57.254Z,21.05
2022-08-15T02:53:57.211Z,21.03
2022-08-15T02:54:59.281Z,21.05
2022-08-15T02:55:57.165Z,21.02
2022-08-15T02:56:57.159Z,20.97
2022-08-15T02:57:58.988Z,20.93
2022-08-15T02:58:58.174Z,20.90
2022-08-15T02:59:57.126Z,20.92
2022-08-15T03:00:57.950Z,20.87
2022-08-15T03:01:58.123Z,20.87
2022-08-15T03:02:57.077Z,20.85
2022-08-15T03:03:57.409Z,20.85
2022-08-15T03:04:57.099Z,20.85
2022-08-15T03:05:57.029Z,20.82
2022-08-15T03:06:57.020Z,20.82
2022-08-15T03:07:57.617Z,20.81
2022-08-15T03:08:56.992Z,20.78
2022-08-15T03:10:00.229Z,20.78
2022-08-15T03:10:59.990Z,20.80
2022-08-15T03:11:58.394Z,20.75
2022-08-15T03:12:56.945Z,20.74
2022-08-15T03:13:56.933Z,20.70
2022-08-15T03:14:56.914Z,20.66
2022-08-15T03:15:58.309Z,20.66
2022-08-15T03:16:56.895Z,20.63
2022-08-15T03:17:56.868Z,20.65
2022-08-15T03:18:56.858Z,20.63
2022-08-15T03:19:58.775Z,20.62
2022-08-15T03:20:56.828Z,20.62
2022-08-15T03:21:56.937Z,20.58
2022-08-15T03:22:56.827Z,20.58
2022-08-15T03:23:56.780Z,20.52
2022-08-15T03:24:56.771Z,20.52
2022-08-15T03:25:56.752Z,20.50
2022-08-15T03:26:56.744Z,20.50
2022-08-15T03:27:56.791Z,20.44
2022-08-15T03:29:01.433Z,20.41
2022-08-15T03:30:00.711Z,20.39
2022-08-15T03:30:59.712Z,20.40
2022-08-15T03:31:56.676Z,20.34
2022-08-15T03:32:56.671Z,20.29
2022-08-15T03:33:58.798Z,20.28
2022-08-15T03:34:56.644Z,20.28
2022-08-15T03:35:56.696Z,20.25
2022-08-15T03:36:57.434Z,20.25
2022-08-15T03:37:59.833Z,20.26
2022-08-15T03:38:58.106Z,20.24
2022-08-15T03:39:56.667Z,20.24
2022-08-15T03:40:56.567Z,20.22
2022-08-15T03:41:56.589Z,20.22
2022-08-15T03:43:02.084Z,20.21
2022-08-15T03:43:57.510Z,20.19
2022-08-15T03:44:56.502Z,20.18
2022-08-15T03:45:58.827Z,20.16
2022-08-15T03:46:56.481Z,20.16
2022-08-15T03:47:56.468Z,20.13
2022-08-15T03:48:57.949Z,20.10
2022-08-15T03:50:27.631Z,20.09
2022-08-15T03:51:00.494Z,20.10
2022-08-15T03:51:56.411Z,20.04
2022-08-15T03:52:56.394Z,20.02
2022-08-15T03:53:56.384Z,20.02
2022-08-15T03:54:56.366Z,20.02
2022-08-15T03:55:56.335Z,19.99
2022-08-15T03:56:56.366Z,20.02
2022-08-15T03:58:02.806Z,20.00
2022-08-15T03:58:57.316Z,20.02
2022-08-15T03:59:56.298Z,20.02
2022-08-15T04:00:58.928Z,20.03
2022-08-15T04:02:00.565Z,20.02
2022-08-15T04:02:56.261Z,20.06
2022-08-15T04:03:56.249Z,20.04
2022-08-15T04:04:59.171Z,20.07
2022-08-15T04:05:56.211Z,20.06
2022-08-15T04:07:00.745Z,20.06
2022-08-15T04:07:57.737Z,20.02
2022-08-15T04:09:13.392Z,20.02
2022-08-15T04:10:00.152Z,19.99
2022-08-15T04:10:59.164Z,19.99
2022-08-15T04:12:04.858Z,19.95
2022-08-15T04:12:56.749Z,19.96
2022-08-15T04:13:56.098Z,19.96
2022-08-15T04:14:56.088Z,19.96
2022-08-15T04:17:00.986Z,19.96
2022-08-15T04:17:02.799Z,19.95
2022-08-15T04:18:00.577Z,19.94
2022-08-15T04:18:59.608Z,19.92
2022-08-15T04:19:56.534Z,19.91
2022-08-15T04:20:56.000Z,19.92
2022-08-15T04:21:55.991Z,19.95
2022-08-15T04:22:56.305Z,19.95
2022-08-15T04:23:55.964Z,19.96
2022-08-15T04:24:55.949Z,20.00
2022-08-15T04:25:55.939Z,20.00
2022-08-15T04:26:56.261Z,20.02
2022-08-15T04:27:55.908Z,20.03
2022-08-15T04:28:57.825Z,20.07
2022-08-15T04:30:00.475Z,20.10
2022-08-15T04:30:59.349Z,20.14
2022-08-15T04:31:55.855Z,20.14
2022-08-15T04:33:00.115Z,20.14
2022-08-15T04:34:22.276Z,20.18
2022-08-15T04:34:57.276Z,20.18
2022-08-15T04:35:55.823Z,20.21
2022-08-15T04:36:57.938Z,20.22
2022-08-15T04:37:55.779Z,20.25
2022-08-15T04:38:55.796Z,20.28
2022-08-15T04:39:55.777Z,20.29
2022-08-15T04:41:15.548Z,20.37
2022-08-15T04:41:56.718Z,20.60
2022-08-15T04:42:55.709Z,20.85
2022-08-15T04:43:55.749Z,21.12
2022-08-15T04:44:55.680Z,21.35
2022-08-15T04:45:57.222Z,21.64
2022-08-15T04:46:55.655Z,21.80
2022-08-15T04:47:55.633Z,22.02
2022-08-15T04:48:55.635Z,22.20
2022-08-15T04:49:58.664Z,22.33
2022-08-15T04:50:59.278Z,22.51
2022-08-15T04:51:55.580Z,22.55
2022-08-15T04:52:55.565Z,22.73
2022-08-15T04:53:55.565Z,22.81
2022-08-15T04:54:58.779Z,22.85
2022-08-15T04:55:55.588Z,22.81
2022-08-15T04:56:58.992Z,22.78
2022-08-15T04:57:55.851Z,22.73
2022-08-15T04:59:06.056Z,22.60
2022-08-15T05:00:05.517Z,22.66
2022-08-15T05:00:59.159Z,22.93
2022-08-15T05:02:50.412Z,23.06
2022-08-15T05:02:57.325Z,23.10
2022-08-15T05:03:57.585Z,23.12
2022-08-15T05:04:55.623Z,23.28
2022-08-15T05:05:56.539Z,23.47
2022-08-15T05:06:55.437Z,23.56
2022-08-15T05:07:58.712Z,23.51
2022-08-15T05:08:55.353Z,23.47
2022-08-15T05:10:00.032Z,23.55
2022-08-15T05:10:59.356Z,23.62
2022-08-15T05:12:01.232Z,23.80
2022-08-15T05:12:56.344Z,23.92
2022-08-15T05:13:55.294Z,24.05
2022-08-15T05:14:55.266Z,24.05
2022-08-15T05:15:55.256Z,24.11
2022-08-15T05:16:55.252Z,24.16
2022-08-15T05:17:58.079Z,24.13
2022-08-15T05:18:55.247Z,24.06
2022-08-15T05:19:55.198Z,24.36
2022-08-15T05:20:55.209Z,24.47
2022-08-15T05:21:55.177Z,24.51
2022-08-15T05:22:55.319Z,24.58
2022-08-15T05:23:55.220Z,24.55
2022-08-15T05:24:58.927Z,24.35
2022-08-15T05:25:55.111Z,24.39
2022-08-15T05:26:58.298Z,24.47
2022-08-15T05:27:55.092Z,24.40
2022-08-15T05:28:58.559Z,24.43
2022-08-15T05:29:58.123Z,24.35
2022-08-15T05:30:58.977Z,24.17
2022-08-15T05:31:55.042Z,24.54
2022-08-15T05:32:55.038Z,24.73
2022-08-15T05:33:56.985Z,24.95
2022-08-15T05:34:55.016Z,24.86
2022-08-15T05:35:55.018Z,24.95
2022-08-15T05:36:54.977Z,24.98
2022-08-15T05:37:54.966Z,25.33
2022-08-15T05:38:54.947Z,25.62
2022-08-15T05:39:55.018Z,25.66
2022-08-15T05:40:54.919Z,25.84
2022-08-15T05:41:54.902Z,25.78
2022-08-15T05:42:54.897Z,25.83
2022-08-15T05:43:55.356Z,25.36
2022-08-15T05:44:54.890Z,24.98
2022-08-15T05:45:54.841Z,24.80
2022-08-15T05:46:54.841Z,24.95
2022-08-15T05:47:54.824Z,25.06
2022-08-15T05:48:54.813Z,25.25
2022-08-15T05:49:57.990Z,25.38
2022-08-15T05:50:59.860Z,25.08
2022-08-15T05:51:54.755Z,24.58
2022-08-15T05:52:57.037Z,24.28
2022-08-15T05:53:55.216Z,23.88
2022-08-15T05:54:54.746Z,23.59
2022-08-15T05:55:55.052Z,23.41
2022-08-15T05:56:54.700Z,23.21
2022-08-15T05:57:54.684Z,23.08
2022-08-15T05:58:54.667Z,23.00
2022-08-15T05:59:54.721Z,23.05
2022-08-15T06:00:54.700Z,23.13
2022-08-15T06:02:34.336Z,23.24
2022-08-15T06:02:58.487Z,23.32
2022-08-15T06:03:54.599Z,23.39
2022-08-15T06:04:54.609Z,23.43
2022-08-15T06:05:54.649Z,23.39
2022-08-15T06:06:54.617Z,23.32
2022-08-15T06:07:59.723Z,23.23
2022-08-15T06:09:01.581Z,23.23
2022-08-15T06:09:58.686Z,23.20
2022-08-15T06:10:57.949Z,23.25
2022-08-15T06:11:54.577Z,23.28
2022-08-15T06:12:54.527Z,23.34
2022-08-15T06:13:54.487Z,23.37
2022-08-15T06:14:54.476Z,23.41
2022-08-15T06:15:55.780Z,23.46
2022-08-15T06:16:56.539Z,23.48
2022-08-15T06:17:54.713Z,23.48
2022-08-15T06:18:54.424Z,23.46
2022-08-15T06:19:54.410Z,23.44
2022-08-15T06:20:55.131Z,23.44
2022-08-15T06:21:54.402Z,23.37
2022-08-15T06:22:54.364Z,23.39
2022-08-15T06:23:54.383Z,23.34
2022-08-15T06:24:54.322Z,23.31
2022-08-15T06:25:54.358Z,23.25
2022-08-15T06:26:54.324Z,23.23
2022-08-15T06:27:58.152Z,23.18
2022-08-15T06:28:55.061Z,23.20
2022-08-15T06:29:57.306Z,23.23
2022-08-15T06:30:57.289Z,23.25
2022-08-15T06:31:54.690Z,23.17
2022-08-15T06:32:54.238Z,23.09
2022-08-15T06:33:57.078Z,23.06
2022-08-15T06:34:56.796Z,23.06
2022-08-15T06:35:56.866Z,23.09
2022-08-15T06:36:54.167Z,23.17
2022-08-15T06:37:59.726Z,23.20
2022-08-15T06:38:55.183Z,23.15
2022-08-15T06:39:55.258Z,23.13
2022-08-15T06:40:55.512Z,23.15
2022-08-15T06:41:54.091Z,23.20
2022-08-15T06:42:54.071Z,23.25
2022-08-15T06:43:56.930Z,23.34
2022-08-15T06:44:54.223Z,23.41
2022-08-15T06:45:55.622Z,23.47
2022-08-15T06:46:57.358Z,23.54
2022-08-15T06:47:55.253Z,23.61
2022-08-15T06:48:59.234Z,23.63
2022-08-15T06:49:58.020Z,23.69
2022-08-15T06:50:58.006Z,23.76
2022-08-15T06:51:54.000Z,23.74
2022-08-15T06:52:55.254Z,23.74
2022-08-15T06:53:56.531Z,23.68
2022-08-15T06:54:55.688Z,23.73
2022-08-15T06:55:55.092Z,23.78
2022-08-15T06:56:53.983Z,23.81
2022-08-15T06:57:53.878Z,23.78
2022-08-15T06:58:56.197Z,23.77
2022-08-15T06:59:56.561Z,23.76
2022-08-15T07:00:54.654Z,23.78
2022-08-15T07:02:16.020Z,23.77
2022-08-15T07:02:55.195Z,23.77
2022-08-15T07:03:53.781Z,23.76
2022-08-15T07:04:53.785Z,23.73
2022-08-15T07:05:53.980Z,23.76
2022-08-15T07:06:53.821Z,23.71
2022-08-15T07:07:53.795Z,23.69
2022-08-15T07:08:53.723Z,23.76
2022-08-15T07:09:56.705Z,23.83
2022-08-15T07:10:57.471Z,23.91
2022-08-15T07:11:57.298Z,23.87
2022-08-15T07:12:53.726Z,23.84
2022-08-15T07:13:58.335Z,23.80
2022-08-15T07:14:54.637Z,23.83
2022-08-15T07:15:54.956Z,23.86
2022-08-15T07:16:53.611Z,23.96
2022-08-15T07:17:55.055Z,24.08
2022-08-15T07:18:54.599Z,24.17
2022-08-15T07:19:56.769Z,24.21
2022-08-15T07:20:53.551Z,24.20
2022-08-15T07:21:54.213Z,24.16
2022-08-15T07:22:53.552Z,24.29
2022-08-15T07:23:53.512Z,24.32
2022-08-15T07:24:53.562Z,24.35
2022-08-15T07:25:55.140Z,24.36
2022-08-15T07:26:53.466Z,24.35
2022-08-15T07:27:53.456Z,24.38
2022-08-15T07:28:53.436Z,24.43
2022-08-15T07:29:57.032Z,24.53
2022-08-15T07:30:57.198Z,24.58
2022-08-15T07:32:04.400Z,24.54
2022-08-15T07:32:54.387Z,24.55
2022-08-15T07:33:55.865Z,24.48
2022-08-15T07:34:53.418Z,24.48
2022-08-15T07:35:54.370Z,24.51
2022-08-15T07:36:53.345Z,24.57
2022-08-15T07:37:53.320Z,24.66
2022-08-15T07:38:53.475Z,24.70
2022-08-15T07:39:53.337Z,24.65
2022-08-15T07:40:56.332Z,24.73
2022-08-15T07:41:54.236Z,24.76
2022-08-15T07:43:10.609Z,24.73
2022-08-15T07:43:54.243Z,24.85
2022-08-15T07:44:53.223Z,24.91
2022-08-15T07:45:53.214Z,24.98
2022-08-15T07:46:55.934Z,25.06
2022-08-15T07:47:53.185Z,25.17
2022-08-15T07:48:53.173Z,25.22
2022-08-15T07:49:56.766Z,25.14
2022-08-15T07:50:56.150Z,25.18
2022-08-15T07:51:53.128Z,25.06
2022-08-15T07:52:53.138Z,25.03
2022-08-15T07:53:55.223Z,25.03
2022-08-15T07:54:53.091Z,25.04
2022-08-15T07:56:54.090Z,24.99
2022-08-15T07:57:53.149Z,24.95
2022-08-15T07:58:53.032Z,24.98
2022-08-15T07:59:54.206Z,25.06
2022-08-15T08:00:53.054Z,25.06
2022-08-15T08:01:54.046Z,25.06
2022-08-15T08:02:56.186Z,25.07
2022-08-15T08:03:52.965Z,25.10
2022-08-15T08:04:52.945Z,25.07
2022-08-15T08:05:54.585Z,25.08
2022-08-15T08:06:54.000Z,25.11
2022-08-15T08:07:53.263Z,25.18
2022-08-15T08:08:52.901Z,25.29
2022-08-15T08:09:55.878Z,25.36
2022-08-15T08:10:55.883Z,25.48
2022-08-15T08:11:55.101Z,25.54
2022-08-15T08:12:56.947Z,25.68
2022-08-15T08:13:53.205Z,25.73
2022-08-15T08:14:52.819Z,25.83
2022-08-15T08:15:52.854Z,25.96
2022-08-15T08:16:52.779Z,26.10
2022-08-15T08:17:56.253Z,26.23
2022-08-15T08:18:52.782Z,26.34
2022-08-15T08:19:53.624Z,26.38
2022-08-15T08:20:52.745Z,26.40
2022-08-15T08:21:55.348Z,26.16
2022-08-15T08:22:52.711Z,26.10
2022-08-15T08:23:54.294Z,26.21
2022-08-15T08:24:52.712Z,26.22
2022-08-15T08:26:06.601Z,26.28
2022-08-15T08:26:53.646Z,26.33
2022-08-15T08:27:53.271Z,26.36
2022-08-15T08:28:52.618Z,26.40
2022-08-15T08:29:55.639Z,26.48
2022-08-15T08:30:55.635Z,26.58
2022-08-15T08:31:55.170Z,26.63
2022-08-15T08:32:53.569Z,26.65
2022-08-15T08:33:55.943Z,26.63
2022-08-15T08:34:52.540Z,26.65
2022-08-15T08:35:52.750Z,26.66
2022-08-15T08:36:52.545Z,26.65
2022-08-15T08:37:54.400Z,26.65
2022-08-15T08:38:58.636Z,26.66
2022-08-15T08:39:53.543Z,26.71
2022-08-15T08:40:52.506Z,26.74
2022-08-15T08:41:56.168Z,26.73
2022-08-15T08:42:52.992Z,26.74
2022-08-15T08:43:55.121Z,26.84
2022-08-15T08:44:52.407Z,26.75
2022-08-15T08:45:53.405Z,26.73
2022-08-15T08:46:52.416Z,26.74
2022-08-15T08:47:52.371Z,26.80
2022-08-15T08:48:53.413Z,26.84
2022-08-15T08:50:31.509Z,26.90
2022-08-15T08:50:56.397Z,26.99
2022-08-15T08:51:53.262Z,27.00
2022-08-15T08:52:55.676Z,27.05
2022-08-15T08:53:56.347Z,27.11
2022-08-15T08:55:01.275Z,27.12
2022-08-15T08:55:53.282Z,27.15
2022-08-15T08:56:52.242Z,27.20
2022-08-15T08:57:53.234Z,27.32
2022-08-15T08:58:52.253Z,27.49
2022-08-15T08:59:52.234Z,27.65
2022-08-15T09:00:52.192Z,27.68
2022-08-15T09:01:52.246Z,27.67
2022-08-15T09:02:57.295Z,27.64
2022-08-15T09:03:53.802Z,27.63
2022-08-15T09:04:52.147Z,27.63
2022-08-15T09:05:52.142Z,27.55
2022-08-15T09:06:52.108Z,27.58
2022-08-15T09:07:52.108Z,27.54
2022-08-15T09:08:52.089Z,27.52
2022-08-15T09:09:57.377Z,27.49
2022-08-15T09:10:55.075Z,27.49
2022-08-15T09:11:53.539Z,27.45
2022-08-15T09:12:52.042Z,27.47
2022-08-15T09:13:55.693Z,27.42
2022-08-15T09:14:58.494Z,27.44
2022-08-15T09:15:54.303Z,27.42
2022-08-15T09:16:54.166Z,27.39
2022-08-15T09:17:59.740Z,27.39
2022-08-15T09:18:52.957Z,27.37
2022-08-15T09:19:52.827Z,27.37
2022-08-15T09:20:53.504Z,27.39
2022-08-15T09:21:51.916Z,27.36
2022-08-15T09:22:53.797Z,27.35
2022-08-15T09:23:51.887Z,27.35
2022-08-15T09:25:06.415Z,27.36
2022-08-15T09:25:52.888Z,27.36
2022-08-15T09:26:52.963Z,27.35
2022-08-15T09:27:55.075Z,27.36
2022-08-15T09:28:55.123Z,27.36
2022-08-15T09:29:56.547Z,27.37
2022-08-15T09:30:57.461Z,27.42
2022-08-15T09:32:00.182Z,27.45
2022-08-15T09:32:52.762Z,27.49
2022-08-15T09:33:52.982Z,27.54
2022-08-15T09:34:51.737Z,27.63
2022-08-15T09:35:52.203Z,27.74
2022-08-15T09:36:51.732Z,27.77
2022-08-15T09:37:54.664Z,27.85
2022-08-15T09:38:51.687Z,28.01
2022-08-15T09:39:51.703Z,28.14
2022-08-15T09:41:12.285Z,28.17
2022-08-15T09:41:55.066Z,28.15
2022-08-15T09:43:13.919Z,28.17
2022-08-15T09:43:52.615Z,28.20
2022-08-15T09:44:57.536Z,28.15
2022-08-15T09:45:52.685Z,28.10
2022-08-15T09:46:51.570Z,28.19
2022-08-15T09:47:55.501Z,28.30
2022-08-15T09:48:51.864Z,28.44
2022-08-15T09:49:54.533Z,28.63
2022-08-15T09:50:55.430Z,28.79
2022-08-15T09:51:51.504Z,28.94
2022-08-15T09:52:51.522Z,29.07
2022-08-15T09:53:59.664Z,29.10
2022-08-15T09:54:52.465Z,29.12
2022-08-15T09:55:53.800Z,29.22
2022-08-15T09:57:51.693Z,29.57
2022-08-15T09:58:55.238Z,29.72
2022-08-15T09:59:51.424Z,29.87
2022-08-15T10:00:51.423Z,30.05
2022-08-15T10:01:56.311Z,30.13
2022-08-15T10:02:52.354Z,30.08
2022-08-15T10:03:51.339Z,30.13
2022-08-15T10:04:51.330Z,30.27
2022-08-15T10:05:52.544Z,30.37
2022-08-15T10:06:51.293Z,30.55
2022-08-15T10:07:53.389Z,30.73
2022-08-15T10:08:51.274Z,30.81
2022-08-15T10:09:54.262Z,30.88
2022-08-15T10:10:54.287Z,31.00
2022-08-15T10:12:01.160Z,30.99
2022-08-15T10:12:52.270Z,31.14
2022-08-15T10:13:51.213Z,31.20
2022-08-15T10:14:51.194Z,31.07
2022-08-15T10:15:52.143Z,31.02
2022-08-15T10:16:51.197Z,31.00
2022-08-15T10:17:57.648Z,31.00
2022-08-15T10:18:52.147Z,31.00
2022-08-15T10:20:00.850Z,31.00
2022-08-15T10:20:52.147Z,31.00
2022-08-15T10:21:51.962Z,31.00
2022-08-15T10:22:51.121Z,30.97
2022-08-15T10:23:59.138Z,30.94
2022-08-15T10:24:52.408Z,30.91
2022-08-15T10:25:51.062Z,30.92
2022-08-15T10:26:57.308Z,30.84
2022-08-15T10:27:52.062Z,30.83
2022-08-15T10:28:53.867Z,30.84
2022-08-15T10:29:55.027Z,30.90
2022-08-15T10:30:54.129Z,30.99
2022-08-15T10:32:34.188Z,31.00
2022-08-15T10:33:11.106Z,30.94
2022-08-15T10:33:58.987Z,30.96
2022-08-15T10:34:57.258Z,31.02
2022-08-15T10:35:52.150Z,31.10
2022-08-15T10:36:50.921Z,31.14
2022-08-15T10:37:50.909Z,31.15
2022-08-15T10:38:51.940Z,31.27
2022-08-15T10:39:51.027Z,31.28
2022-08-15T10:40:50.863Z,31.22
2022-08-15T10:41:51.087Z,31.28
2022-08-15T10:42:50.853Z,31.34
2022-08-15T10:43:54.724Z,31.43
2022-08-15T10:44:51.931Z,31.49
2022-08-15T10:45:55.864Z,31.56
2022-08-15T10:46:51.803Z,31.65
2022-08-15T10:48:01.843Z,31.65
2022-08-15T10:48:51.794Z,31.66
2022-08-15T10:49:58.818Z,31.76
2022-08-15T10:50:54.778Z,31.84
2022-08-15T10:51:50.751Z,31.85
2022-08-15T10:52:51.987Z,31.77
2022-08-15T10:53:51.512Z,31.77
2022-08-15T10:54:51.215Z,31.70
2022-08-15T10:55:57.447Z,31.65
2022-08-15T10:56:59.712Z,31.64
2022-08-15T10:57:52.182Z,31.59
2022-08-15T10:58:50.629Z,31.59
2022-08-15T10:59:57.088Z,31.49
2022-08-15T11:00:52.252Z,31.46
2022-08-15T11:01:50.649Z,31.44
2022-08-15T11:03:10.797Z,31.52
2022-08-15T11:04:49.388Z,31.55
2022-08-15T11:04:58.768Z,31.55
2022-08-15T11:05:51.525Z,31.61
2022-08-15T11:06:55.306Z,31.80
2022-08-15T11:07:58.382Z,32.08
2022-08-15T11:08:51.491Z,32.12
2022-08-15T11:09:53.468Z,32.12
2022-08-15T11:10:53.962Z,32.21
2022-08-15T11:11:50.459Z,32.29
2022-08-15T11:12:50.440Z,32.43
2022-08-15T11:13:50.412Z,32.56
2022-08-15T11:14:50.517Z,32.70
2022-08-15T11:15:50.385Z,32.67
2022-08-15T11:16:50.502Z,32.58
2022-08-15T11:17:50.508Z,32.53
2022-08-15T11:18:58.594Z,32.51
2022-08-15T11:20:10.316Z,32.41
2022-08-15T11:20:52.949Z,32.31
2022-08-15T11:21:52.190Z,32.26
2022-08-15T11:22:50.285Z,32.00
2022-08-15T11:23:50.346Z,31.89
2022-08-15T11:24:51.131Z,31.73
2022-08-15T11:25:51.249Z,31.61
2022-08-15T11:26:53.723Z,31.51
2022-08-15T11:27:58.999Z,31.46
2022-08-15T11:28:55.899Z,31.40
2022-08-15T11:29:54.219Z,31.37
2022-08-15T11:30:53.201Z,31.39
2022-08-15T11:31:56.057Z,31.39
2022-08-15T11:32:54.450Z,31.61
2022-08-15T11:33:50.934Z,31.84
2022-08-15T11:34:50.626Z,31.90
2022-08-15T11:35:50.820Z,32.15
2022-08-15T11:36:50.886Z,32.16
2022-08-15T11:37:54.400Z,32.14
2022-08-15T11:39:10.388Z,32.12
2022-08-15T11:39:51.107Z,32.01
2022-08-15T11:40:50.045Z,31.99
2022-08-15T11:41:54.562Z,32.09
2022-08-15T11:42:58.248Z,32.22
2022-08-15T11:43:51.103Z,32.22
2022-08-15T11:44:50.037Z,32.34
2022-08-15T11:45:51.477Z,32.38
2022-08-15T11:46:49.988Z,32.45
2022-08-15T11:47:50.123Z,32.48
2022-08-15T11:48:49.953Z,32.43
2022-08-15T11:49:52.963Z,32.45
2022-08-15T11:50:53.733Z,32.48
2022-08-15T11:52:39.058Z,32.43
2022-08-15T11:52:51.170Z,32.37
2022-08-15T11:53:49.874Z,32.43
2022-08-15T11:54:49.881Z,32.53
2022-08-15T11:55:49.905Z,32.71
2022-08-15T11:56:53.537Z,32.65
2022-08-15T11:57:52.176Z,32.77
2022-08-15T11:59:03.187Z,32.80
2022-08-15T11:59:50.826Z,32.95
2022-08-15T12:00:52.148Z,33.09
2022-08-15T12:01:49.950Z,33.17
2022-08-15T12:03:03.081Z,33.24
2022-08-15T12:04:39.361Z,33.23
2022-08-15T12:05:42.887Z,33.34
2022-08-15T12:06:08.038Z,33.30
2022-08-15T12:06:54.889Z,33.27
2022-08-15T12:07:51.473Z,33.23
2022-08-15T12:08:49.684Z,33.27
2022-08-15T12:09:53.342Z,33.12
2022-08-15T12:11:52.706Z,32.52
2022-08-15T12:12:49.688Z,31.93
2022-08-15T12:13:17.652Z,33.07
2022-08-15T12:13:49.935Z,31.36
2022-08-15T12:14:50.300Z,31.27
2022-08-15T12:15:49.638Z,31.24
2022-08-15T12:16:55.117Z,31.36
2022-08-15T12:17:56.023Z,31.44
2022-08-15T12:18:51.692Z,31.33
2022-08-15T12:20:25.066Z,31.05
2022-08-15T12:20:50.551Z,30.50
2022-08-15T12:21:55.386Z,30.06
2022-08-15T12:22:54.757Z,29.95
2022-08-15T12:23:53.565Z,29.78
2022-08-15T12:24:49.509Z,29.76
2022-08-15T12:25:54.928Z,29.88
2022-08-15T12:27:04.609Z,29.71
2022-08-15T12:27:50.621Z,29.76
2022-08-15T12:28:55.476Z,29.88
2022-08-15T12:29:53.475Z,29.79
2022-08-15T12:30:52.435Z,29.81
2022-08-15T12:31:49.427Z,29.66
2022-08-15T12:32:49.388Z,29.86
2022-08-15T12:33:52.762Z,30.15
2022-08-15T12:34:49.377Z,30.13
2022-08-15T12:36:01.203Z,30.27
2022-08-15T12:37:04.068Z,30.63
2022-08-15T12:37:50.874Z,30.70
2022-08-15T12:38:49.327Z,30.90
2022-08-15T12:39:49.325Z,30.96
2022-08-15T12:41:00.904Z,30.92
2022-08-15T12:42:49.107Z,30.96
2022-08-15T12:42:57.638Z,31.20
2022-08-15T12:43:50.377Z,31.40
2022-08-15T12:44:49.217Z,31.59
2022-08-15T12:45:51.057Z,31.81
2022-08-15T12:46:49.197Z,32.04
2022-08-15T12:48:05.434Z,32.04
2022-08-15T12:48:58.357Z,31.74
2022-08-15T12:49:53.319Z,31.73
2022-08-15T12:50:52.180Z,31.74
2022-08-15T12:51:49.399Z,31.80
2022-08-15T12:52:50.227Z,31.90
2022-08-15T12:53:50.100Z,32.00
2022-08-15T12:54:49.142Z,32.14